createdAt,value
2018-09-19T00:00:51.725Z,82.30
2018-09-19T00:03:21.738Z,81.78
2018-09-19T00:05:51.170Z,81.89
2018-09-19T00:08:20.632Z,82.11
2018-09-19T00:10:50.247Z,82.68
2018-09-19T00:13:19.780Z,82.10
2018-09-19T00:15:49.743Z,82.64
2018-09-19T00:18:19.182Z,82.93
2018-09-19T00:20:48.675Z,82.50
2018-09-19T00:23:18.089Z,82.77
2018-09-19T00:25:47.541Z,82.67
2018-09-19T00:28:18.434Z,83.26
2018-09-19T00:30:47.966Z,83.42
2018-09-19T00:33:17.433Z,83.49
2018-09-19T00:35:46.903Z,83.67
2018-09-19T00:38:16.864Z,83.98
2018-09-19T00:40:46.380Z,83.52
2018-09-19T00:43:15.822Z,83.22
2018-09-19T00:45:45.344Z,83.68
2018-09-19T00:48:14.834Z,84.03
2018-09-19T00:50:44.261Z,84.04
2018-09-19T00:53:13.878Z,84.12
2018-09-19T00:55:43.317Z,84.22
2018-09-19T00:58:12.744Z,83.97
2018-09-19T01:00:42.265Z,84.38
2018-09-19T01:03:12.402Z,84.06
2018-09-19T01:05:41.839Z,84.11
2018-09-19T01:08:11.347Z,84.38
2018-09-19T01:10:40.783Z,84.98
2018-09-19T01:13:10.243Z,84.40
2018-09-19T01:15:39.726Z,84.95
2018-09-19T01:18:09.195Z,85.36
2018-09-19T01:20:38.681Z,85.08
2018-09-19T01:23:09.085Z,84.90
2018-09-19T01:25:38.530Z,85.38
2018-09-19T01:28:08.589Z,85.54
2018-09-19T01:30:38.647Z,85.36
2018-09-19T01:33:08.078Z,85.21
2018-09-19T01:35:37.555Z,85.49
2018-09-19T01:38:07.286Z,85.20
2018-09-19T01:40:36.747Z,85.85
2018-09-19T01:43:07.035Z,86.44
2018-09-19T01:45:36.585Z,85.64
2018-09-19T01:48:06.092Z,85.88
2018-09-19T01:50:35.567Z,86.70
2018-09-19T01:53:04.978Z,86.66
2018-09-19T01:55:34.394Z,86.45
2018-09-19T01:58:03.818Z,86.01
2018-09-19T02:00:33.318Z,86.53
2018-09-19T02:03:02.760Z,85.85
2018-09-19T02:05:32.193Z,85.87
2018-09-19T02:08:01.632Z,86.50
2018-09-19T02:10:31.372Z,87.11
2018-09-19T02:13:00.840Z,87.50
2018-09-19T02:15:30.348Z,87.68
2018-09-19T02:17:59.781Z,86.97
2018-09-19T02:20:29.274Z,86.83
2018-09-19T02:22:58.796Z,87.31
2018-09-19T02:25:28.304Z,86.89
2018-09-19T02:27:57.782Z,87.08
2018-09-19T02:30:27.206Z,87.90
2018-09-19T02:32:56.667Z,88.01
2018-09-19T02:35:26.122Z,87.75
2018-09-19T02:37:55.556Z,87.53
2018-09-19T02:40:25.035Z,87.80
2018-09-19T02:42:54.569Z,87.95
2018-09-19T02:45:24.044Z,87.51
2018-09-19T02:47:53.446Z,87.80
2018-09-19T02:50:23.038Z,88.40
2018-09-19T02:52:56.341Z,88.25
2018-09-19T02:55:26.905Z,88.17
2018-09-19T02:57:56.500Z,87.89
2018-09-19T03:00:26.140Z,88.95
2018-09-19T03:02:57.551Z,88.91
2018-09-19T03:05:28.023Z,88.62
2018-09-19T03:07:58.010Z,88.64
2018-09-19T03:10:27.490Z,88.93
2018-09-19T03:12:57.008Z,88.44
2018-09-19T03:15:26.425Z,88.50
2018-09-19T03:17:57.045Z,88.37
2018-09-19T03:20:26.548Z,89.01
2018-09-19T03:22:55.997Z,88.43
2018-09-19T03:25:25.660Z,89.35
2018-09-19T03:27:55.044Z,88.74
2018-09-19T03:30:24.498Z,89.30
2018-09-19T03:32:54.428Z,88.97
2018-09-19T03:35:24.120Z,89.09
2018-09-19T03:37:53.404Z,88.58
2018-09-19T03:40:22.879Z,89.14
2018-09-19T03:42:52.505Z,89.15
2018-09-19T03:45:22.612Z,89.97
2018-09-19T03:47:52.064Z,89.85
2018-09-19T03:50:21.497Z,89.97
2018-09-19T03:52:50.920Z,89.69
2018-09-19T03:55:20.335Z,90.00
2018-09-19T03:57:49.892Z,89.23
2018-09-19T04:00:19.407Z,89.63
2018-09-19T04:02:48.916Z,89.44
2018-09-19T04:05:18.338Z,89.67
2018-09-19T04:07:48.689Z,89.74
2018-09-19T04:10:18.223Z,89.72
2018-09-19T04:12:47.753Z,90.09
2018-09-19T04:15:17.277Z,90.33
2018-09-19T04:17:46.799Z,90.09
2018-09-19T04:20:16.183Z,89.52
2018-09-19T04:22:45.616Z,89.68
2018-09-19T04:25:15.309Z,89.62
2018-09-19T04:27:44.782Z,89.58
2018-09-19T04:30:14.210Z,90.03
2018-09-19T04:32:43.730Z,90.36
2018-09-19T04:35:13.190Z,90.60
2018-09-19T04:37:42.629Z,90.17
2018-09-19T04:40:12.174Z,90.80
2018-09-19T04:42:41.618Z,90.41
2018-09-19T04:45:13.326Z,90.35
2018-09-19T04:47:44.625Z,90.33
2018-09-19T04:50:14.113Z,90.59
2018-09-19T04:52:43.556Z,90.29
2018-09-19T04:55:12.944Z,90.92
2018-09-19T04:57:44.160Z,90.97
2018-09-19T05:00:14.621Z,91.06
2018-09-19T05:02:44.104Z,90.79
2018-09-19T05:05:13.523Z,90.53
2018-09-19T05:07:44.824Z,91.02
2018-09-19T05:10:16.252Z,91.01
2018-09-19T05:12:47.590Z,91.30
2018-09-19T05:15:18.917Z,91.17
2018-09-19T05:17:49.869Z,91.45
2018-09-19T05:20:19.338Z,90.90
2018-09-19T05:22:48.829Z,90.87
2018-09-19T05:25:18.262Z,90.95
2018-09-19T05:27:48.200Z,91.14
2018-09-19T05:30:17.680Z,91.38
2018-09-19T05:32:47.322Z,91.37
2018-09-19T05:35:16.805Z,91.75
2018-09-19T05:37:46.224Z,91.86
2018-09-19T05:40:15.792Z,92.07
2018-09-19T05:42:45.330Z,92.15
2018-09-19T05:45:15.358Z,91.86
2018-09-19T05:47:44.904Z,91.91
2018-09-19T05:50:14.347Z,91.41
2018-09-19T05:52:43.812Z,91.96
2018-09-19T05:55:13.227Z,92.14
2018-09-19T05:57:42.650Z,91.83
2018-09-19T06:00:12.190Z,92.57
2018-09-19T06:02:41.611Z,92.25
2018-09-19T06:05:11.053Z,93.00
2018-09-19T06:07:40.502Z,93.01
2018-09-19T06:10:09.952Z,93.06
2018-09-19T06:12:39.488Z,92.63
2018-09-19T06:15:09.031Z,92.47
2018-09-19T06:17:38.516Z,92.85
2018-09-19T06:20:08.003Z,92.48
2018-09-19T06:22:37.472Z,92.36
2018-09-19T06:25:07.943Z,92.48
2018-09-19T06:27:37.410Z,92.61
2018-09-19T06:30:07.722Z,92.68
2018-09-19T06:32:37.235Z,92.65
2018-09-19T06:35:07.650Z,93.29
2018-09-19T06:37:37.145Z,92.89
2018-09-19T06:40:06.680Z,92.44
2018-09-19T06:42:36.087Z,93.13
2018-09-19T06:45:06.603Z,93.21
2018-09-19T06:47:36.724Z,93.01
2018-09-19T06:50:06.894Z,92.73
2018-09-19T06:52:37.741Z,92.82
2018-09-19T06:55:07.261Z,92.70
2018-09-19T06:57:36.692Z,92.60
2018-09-19T07:00:07.072Z,92.51
2018-09-19T07:02:36.526Z,92.42
2018-09-19T07:05:06.028Z,92.90
2018-09-19T07:07:35.424Z,92.41
2018-09-19T07:10:04.923Z,92.32
2018-09-19T07:12:34.342Z,92.99
2018-09-19T07:15:03.907Z,92.30
2018-09-19T07:17:34.288Z,92.78
2018-09-19T07:20:03.875Z,93.15
2018-09-19T07:22:33.338Z,92.60
2018-09-19T07:25:03.000Z,92.72
2018-09-19T07:27:32.399Z,92.56
2018-09-19T07:30:02.019Z,92.16
2018-09-19T07:32:31.465Z,92.73
2018-09-19T07:35:00.877Z,92.05
2018-09-19T07:37:30.305Z,92.13
2018-09-19T07:39:59.733Z,92.26
2018-09-19T07:42:29.661Z,92.92
2018-09-19T07:44:59.112Z,92.70
2018-09-19T07:47:28.652Z,93.17
2018-09-19T07:49:58.034Z,93.27
2018-09-19T07:52:27.596Z,93.18
2018-09-19T07:54:57.041Z,93.88
2018-09-19T07:57:26.465Z,93.62
2018-09-19T07:59:55.891Z,93.68
2018-09-19T08:02:25.303Z,94.12
2018-09-19T08:04:55.020Z,94.09
2018-09-19T08:07:24.479Z,93.76
2018-09-19T08:09:53.932Z,93.23
2018-09-19T08:12:23.396Z,93.56
2018-09-19T08:14:52.825Z,94.09
2018-09-19T08:17:22.322Z,94.00
2018-09-19T08:19:53.057Z,93.97
2018-09-19T08:22:22.522Z,93.68
2018-09-19T08:24:51.940Z,93.33
2018-09-19T08:27:21.370Z,93.97
2018-09-19T08:29:50.808Z,93.17
2018-09-19T08:32:20.273Z,93.65
2018-09-19T08:34:49.759Z,93.46
2018-09-19T08:37:19.192Z,92.79
2018-09-19T08:39:48.586Z,92.19
2018-09-19T08:42:18.252Z,92.04
2018-09-19T08:44:47.750Z,92.30
2018-09-19T08:47:17.162Z,91.71
2018-09-19T08:49:47.819Z,91.36
2018-09-19T08:52:17.771Z,90.61
2018-09-19T08:54:47.699Z,90.09
2018-09-19T08:57:17.280Z,88.05
2018-09-19T08:59:46.717Z,87.97
2018-09-19T09:02:16.326Z,87.54
2018-09-19T09:04:45.723Z,86.59
2018-09-19T09:07:15.161Z,84.33
2018-09-19T09:09:44.619Z,83.68
2018-09-19T09:12:14.047Z,83.40
2018-09-19T09:14:44.006Z,81.71
2018-09-19T09:17:13.427Z,81.12
2018-09-19T09:19:44.383Z,81.66
2018-09-19T09:22:13.828Z,81.19
2018-09-19T09:24:43.362Z,80.70
2018-09-19T09:27:12.884Z,80.90
2018-09-19T09:29:42.248Z,80.65
2018-09-19T09:32:12.351Z,80.58
2018-09-19T09:34:41.772Z,80.49
2018-09-19T09:37:11.269Z,80.06
2018-09-19T09:39:40.742Z,80.90
2018-09-19T09:42:10.177Z,80.01
2018-09-19T09:44:39.574Z,79.96
2018-09-19T09:47:08.990Z,78.47
2018-09-19T09:49:38.466Z,79.03
2018-09-19T09:52:08.435Z,78.15
2018-09-19T09:54:37.909Z,78.26
2018-09-19T09:57:07.369Z,76.98
2018-09-19T09:59:36.762Z,77.11
2018-09-19T10:02:06.231Z,76.79
2018-09-19T10:04:35.626Z,76.99
2018-09-19T10:07:06.232Z,76.96
2018-09-19T10:09:35.688Z,75.39
2018-09-19T10:12:05.154Z,75.00
2018-09-19T10:14:34.625Z,75.40
2018-09-19T10:17:04.102Z,74.78
2018-09-19T10:19:33.657Z,73.85
2018-09-19T10:22:03.101Z,74.07
2018-09-19T10:24:32.572Z,73.72
2018-09-19T10:27:02.048Z,72.35
2018-09-19T10:29:31.515Z,72.38
2018-09-19T10:32:00.976Z,71.49
2018-09-19T10:34:30.412Z,71.84
2018-09-19T10:36:59.891Z,72.08
2018-09-19T10:39:29.334Z,71.83
2018-09-19T10:41:58.799Z,70.54
2018-09-19T10:44:28.226Z,70.75
2018-09-19T10:46:57.696Z,68.23
2018-09-19T10:49:27.131Z,68.85
2018-09-19T10:51:56.603Z,68.41
2018-09-19T10:54:26.574Z,66.84
2018-09-19T10:56:56.098Z,67.28
2018-09-19T10:59:25.485Z,67.52
2018-09-19T11:01:54.917Z,66.98
2018-09-19T11:04:24.296Z,67.33
2018-09-19T11:06:54.251Z,65.98
2018-09-19T11:09:23.777Z,65.68
2018-09-19T11:11:53.203Z,65.30
2018-09-19T11:14:22.606Z,65.65
2018-09-19T11:16:52.079Z,65.00
2018-09-19T11:19:22.157Z,65.10
2018-09-19T11:21:51.665Z,65.66
2018-09-19T11:24:21.061Z,64.86
2018-09-19T11:26:50.521Z,65.07
2018-09-19T11:29:20.093Z,65.07
2018-09-19T11:31:49.526Z,64.59
2018-09-19T11:34:19.046Z,64.35
2018-09-19T11:36:51.511Z,64.03
2018-09-19T11:39:20.978Z,64.09
2018-09-19T11:41:50.432Z,63.75
2018-09-19T11:44:19.885Z,63.19
2018-09-19T11:46:49.833Z,61.95
2018-09-19T11:49:20.556Z,62.17
2018-09-19T11:51:50.028Z,62.26
2018-09-19T11:54:19.516Z,62.23
2018-09-19T11:56:48.953Z,60.78
2018-09-19T11:59:18.620Z,60.36
2018-09-19T12:01:48.020Z,60.09
2018-09-19T12:04:17.506Z,60.77
2018-09-19T12:06:47.654Z,60.77
2018-09-19T12:09:17.677Z,61.32
2018-09-19T12:11:47.127Z,60.40
2018-09-19T12:14:16.773Z,60.23
2018-09-19T12:16:46.299Z,59.26
2018-09-19T12:19:16.008Z,59.44
2018-09-19T12:21:45.499Z,59.59
2018-09-19T12:24:14.963Z,59.29
2018-09-19T12:26:44.501Z,59.20
2018-09-19T12:29:13.947Z,59.63
2018-09-19T12:31:44.121Z,59.10
2018-09-19T12:34:13.621Z,59.63
2018-09-19T12:36:43.794Z,59.81
2018-09-19T12:39:13.225Z,59.17
2018-09-19T12:41:43.993Z,59.32
2018-09-19T12:44:14.657Z,59.73
2018-09-19T12:46:46.070Z,59.63
2018-09-19T12:49:17.461Z,59.73
2018-09-19T12:51:47.182Z,59.47
2018-09-19T12:54:17.855Z,58.97
2018-09-19T12:56:47.887Z,59.39
2018-09-19T12:59:19.449Z,58.57
2018-09-19T13:01:50.143Z,58.44
2018-09-19T13:04:21.319Z,58.32
2018-09-19T13:06:52.100Z,57.76
2018-09-19T13:09:23.614Z,58.08
2018-09-19T13:11:54.365Z,58.01
2018-09-19T13:14:25.734Z,57.97
2018-09-19T13:16:55.717Z,58.19
2018-09-19T13:19:25.165Z,57.37
2018-09-19T13:21:55.662Z,57.07
2018-09-19T13:24:25.330Z,57.37
2018-09-19T13:26:54.910Z,56.88
2018-09-19T13:29:24.352Z,57.48
2018-09-19T13:31:54.703Z,56.91
2018-09-19T13:34:25.348Z,56.73
2018-09-19T13:36:54.829Z,56.45
2018-09-19T13:39:24.326Z,56.86
2018-09-19T13:41:54.323Z,56.08
2018-09-19T13:44:23.953Z,55.80
2018-09-19T13:46:53.413Z,55.70
2018-09-19T13:49:28.501Z,55.18
2018-09-19T13:51:58.414Z,54.05
2018-09-19T13:54:28.167Z,53.27
2018-09-19T13:56:57.673Z,51.34
2018-09-19T13:59:27.225Z,51.21
2018-09-19T14:01:57.889Z,50.14
2018-09-19T14:04:27.313Z,50.31
2018-09-19T14:06:56.783Z,50.62
2018-09-19T14:09:26.184Z,50.78
2018-09-19T14:11:55.675Z,50.94
2018-09-19T14:14:25.146Z,50.71
2018-09-19T14:16:54.727Z,50.66
2018-09-19T14:19:24.225Z,51.02
2018-09-19T14:21:53.716Z,51.31
2018-09-19T14:24:23.247Z,50.85
2018-09-19T14:26:52.696Z,50.58
2018-09-19T14:29:22.952Z,50.41
2018-09-19T14:31:53.050Z,51.14
2018-09-19T14:34:22.521Z,50.89
2018-09-19T14:36:51.999Z,50.62
2018-09-19T14:39:21.468Z,50.31
2018-09-19T14:41:51.084Z,50.61
2018-09-19T14:44:20.547Z,51.18
2018-09-19T14:46:50.017Z,50.55
2018-09-19T14:49:19.499Z,50.45
2018-09-19T14:51:48.955Z,50.70
2018-09-19T14:54:18.361Z,51.23
2018-09-19T14:56:47.914Z,51.20
2018-09-19T14:59:17.370Z,51.09
2018-09-19T15:01:46.793Z,50.68
2018-09-19T15:04:16.266Z,51.47
2018-09-19T15:06:46.260Z,50.61
2018-09-19T15:09:15.743Z,50.77
2018-09-19T15:11:45.293Z,50.27
2018-09-19T15:14:14.731Z,50.34
2018-09-19T15:16:44.268Z,50.51
2018-09-19T15:19:13.702Z,50.17
2018-09-19T15:21:43.560Z,50.10
2018-09-19T15:24:13.031Z,50.46
2018-09-19T15:26:42.477Z,51.02
2018-09-19T15:29:12.049Z,51.03
2018-09-19T15:31:41.532Z,50.54
2018-09-19T15:34:11.750Z,50.29
2018-09-19T15:36:41.491Z,50.47
2018-09-19T15:39:11.350Z,50.84
2018-09-19T15:41:40.884Z,50.74
2018-09-19T15:44:10.457Z,51.00
2018-09-19T15:46:39.995Z,50.00
2018-09-19T15:49:09.656Z,51.65
2018-09-19T15:51:40.136Z,49.59
2018-09-19T15:54:09.554Z,50.07
2018-09-19T15:56:39.053Z,50.08
2018-09-19T15:59:09.173Z,50.17
2018-09-19T16:01:38.618Z,50.89
2018-09-19T16:04:08.284Z,51.54
2018-09-19T16:06:37.799Z,51.01
2018-09-19T16:09:10.018Z,51.48
2018-09-19T16:11:39.501Z,51.15
2018-09-19T16:14:09.445Z,52.34
2018-09-19T16:16:39.178Z,52.39
2018-09-19T16:19:08.901Z,52.29
2018-09-19T16:21:38.401Z,52.38
2018-09-19T16:24:07.916Z,52.93
2018-09-19T16:26:37.475Z,53.45
2018-09-19T16:29:07.325Z,53.09
2018-09-19T16:31:36.819Z,53.00
2018-09-19T16:34:06.352Z,53.39
2018-09-19T16:36:35.892Z,54.00
2018-09-19T16:39:10.535Z,54.32
2018-09-19T16:41:40.080Z,54.21
2018-09-19T16:44:09.576Z,54.65
2018-09-19T16:46:39.104Z,55.34
2018-09-19T16:49:09.417Z,55.42
2018-09-19T16:51:39.856Z,55.50
2018-09-19T16:54:09.894Z,55.53
2018-09-19T16:56:39.407Z,55.90
2018-09-19T16:59:08.895Z,56.19
2018-09-19T17:01:38.502Z,56.63
2018-09-19T17:04:08.065Z,56.74
2018-09-19T17:06:37.523Z,56.85
2018-09-19T17:09:09.359Z,57.04
2018-09-19T17:11:39.056Z,57.75
2018-09-19T17:14:08.564Z,58.19
2018-09-19T17:16:37.970Z,58.24
2018-09-19T17:19:07.449Z,58.42
2018-09-19T17:21:36.892Z,60.76
2018-09-19T17:24:06.433Z,60.95
2018-09-19T17:26:36.057Z,61.11
2018-09-19T17:29:05.645Z,61.53
2018-09-19T17:31:35.799Z,62.31
2018-09-19T17:34:05.455Z,62.58
2018-09-19T17:36:34.879Z,62.99
2018-09-19T17:39:07.297Z,63.60
2018-09-19T17:41:37.946Z,63.95
2018-09-19T17:44:07.562Z,64.08
2018-09-19T17:46:37.733Z,64.77
2018-09-19T17:49:07.912Z,64.92
2018-09-19T17:51:37.396Z,65.54
2018-09-19T17:54:07.829Z,65.33
2018-09-19T17:56:37.474Z,65.63
2018-09-19T17:59:07.085Z,65.63
2018-09-19T18:01:36.592Z,66.18
2018-09-19T18:04:06.119Z,67.00
2018-09-19T18:06:36.132Z,67.38
2018-09-19T18:09:06.524Z,67.45
2018-09-19T18:11:36.051Z,67.05
2018-09-19T18:14:05.695Z,67.58
2018-09-19T18:16:35.156Z,67.70
2018-09-19T18:19:04.644Z,68.21
2018-09-19T18:21:34.181Z,68.50
2018-09-19T18:24:03.682Z,68.80
2018-09-19T18:26:33.137Z,68.58
2018-09-19T18:29:02.593Z,69.35
2018-09-19T18:31:32.655Z,69.27
2018-09-19T18:34:02.101Z,69.75
2018-09-19T18:36:31.602Z,69.45
2018-09-19T18:39:01.155Z,70.06
2018-09-19T18:41:30.622Z,70.15
2018-09-19T18:44:00.100Z,70.50
2018-09-19T18:46:31.744Z,70.92
2018-09-19T18:49:01.289Z,71.29
2018-09-19T18:51:31.343Z,71.65
2018-09-19T18:54:00.842Z,71.63
2018-09-19T18:56:30.338Z,72.22
2018-09-19T18:58:59.892Z,72.69
2018-09-19T19:01:29.327Z,72.85
2018-09-19T19:03:58.751Z,73.63
2018-09-19T19:06:28.230Z,73.61
2018-09-19T19:08:58.341Z,74.20
2018-09-19T19:11:27.840Z,73.93
2018-09-19T19:13:57.318Z,74.29
2018-09-19T19:16:26.754Z,74.45
2018-09-19T19:18:58.935Z,74.50
2018-09-19T19:21:28.426Z,74.93
2018-09-19T19:23:57.913Z,75.33
2018-09-19T19:26:27.337Z,75.53
2018-09-19T19:28:56.835Z,75.39
2018-09-19T19:31:26.340Z,76.20
2018-09-19T19:33:55.859Z,76.73
2018-09-19T19:36:25.414Z,76.46
2018-09-19T19:38:54.869Z,76.70
2018-09-19T19:41:24.347Z,76.21
2018-09-19T19:43:53.829Z,76.69
2018-09-19T19:46:23.200Z,77.16
2018-09-19T19:48:52.658Z,76.97
2018-09-19T19:51:22.112Z,77.87
2018-09-19T19:53:51.549Z,78.14
2018-09-19T19:56:20.974Z,78.08
2018-09-19T19:58:50.475Z,78.08
2018-09-19T20:01:19.920Z,78.70
2018-09-19T20:03:49.361Z,78.31
2018-09-19T20:06:19.531Z,78.65
2018-09-19T20:08:49.010Z,78.81
2018-09-19T20:11:18.480Z,78.89
2018-09-19T20:13:48.495Z,79.82
2018-09-19T20:16:17.996Z,80.31
2018-09-19T20:18:47.472Z,80.21
2018-09-19T20:21:16.924Z,80.35
2018-09-19T20:23:46.427Z,80.46
2018-09-19T20:26:15.869Z,80.86
2018-09-19T20:28:45.281Z,80.33
2018-09-19T20:31:14.781Z,80.87
2018-09-19T20:33:44.231Z,80.52
2018-09-19T20:36:14.043Z,81.45
2018-09-19T20:38:43.457Z,81.76
2018-09-19T20:41:12.909Z,81.70
2018-09-19T20:43:42.397Z,81.37
2018-09-19T20:46:11.862Z,81.24
2018-09-19T20:48:41.340Z,81.71
2018-09-19T20:51:10.789Z,81.80
2018-09-19T20:53:40.202Z,81.51
2018-09-19T20:56:09.644Z,81.63
2018-09-19T20:58:39.099Z,82.12
2018-09-19T21:01:08.652Z,82.12
2018-09-19T21:03:38.095Z,82.05
2018-09-19T21:06:07.593Z,82.18
2018-09-19T21:08:37.002Z,83.12
2018-09-19T21:11:06.964Z,82.96
2018-09-19T21:13:36.502Z,83.06
2018-09-19T21:16:06.510Z,82.70
2018-09-19T21:18:35.936Z,82.91
2018-09-19T21:21:05.389Z,83.34
2018-09-19T21:23:34.823Z,83.23
2018-09-19T21:26:04.274Z,83.56
2018-09-19T21:28:33.838Z,84.05
2018-09-19T21:31:03.201Z,84.02
2018-09-19T21:33:32.697Z,84.20
2018-09-19T21:36:02.211Z,83.93
2018-09-19T21:38:32.430Z,83.80
2018-09-19T21:41:01.913Z,84.79
2018-09-19T21:43:31.528Z,84.74
2018-09-19T21:46:01.026Z,84.73
2018-09-19T21:48:31.120Z,84.82
2018-09-19T21:51:01.530Z,84.98
2018-09-19T21:53:30.908Z,85.84
2018-09-19T21:56:01.109Z,85.07
2018-09-19T21:58:30.533Z,86.12
2018-09-19T22:01:05.241Z,86.38
2018-09-19T22:03:34.752Z,86.03
2018-09-19T22:06:04.235Z,86.45
2018-09-19T22:08:33.673Z,86.52
2018-09-19T22:11:03.176Z,86.48
2018-09-19T22:13:32.664Z,85.83
2018-09-19T22:16:02.040Z,86.66
2018-09-19T22:18:31.509Z,86.96
2018-09-19T22:21:01.994Z,87.30
2018-09-19T22:23:31.393Z,87.14
2018-09-19T22:26:00.888Z,86.89
2018-09-19T22:28:30.335Z,87.04
2018-09-19T22:31:00.885Z,87.59
2018-09-19T22:33:30.286Z,87.92
2018-09-19T22:36:00.934Z,87.28
2018-09-19T22:38:30.361Z,87.10
2018-09-19T22:40:59.742Z,87.87
2018-09-19T22:43:29.185Z,88.05
2018-09-19T22:45:58.615Z,87.85
2018-09-19T22:48:28.043Z,88.48
2018-09-19T22:50:57.425Z,88.45
2018-09-19T22:53:26.913Z,88.57
2018-09-19T22:55:56.395Z,88.71
2018-09-19T22:58:25.806Z,88.43
2018-09-19T23:00:55.289Z,88.75
2018-09-19T23:03:24.681Z,88.72
2018-09-19T23:05:54.190Z,88.63
2018-09-19T23:08:24.453Z,88.90
2018-09-19T23:10:53.890Z,88.39
2018-09-19T23:13:23.363Z,89.25
2018-09-19T23:15:52.815Z,88.64
2018-09-19T23:18:22.280Z,89.01
2018-09-19T23:20:51.754Z,88.97
2018-09-19T23:23:21.145Z,89.21
2018-09-19T23:25:50.605Z,89.34
2018-09-19T23:28:20.023Z,89.23
2018-09-19T23:30:49.538Z,88.71
2018-09-19T23:33:19.002Z,89.14
2018-09-19T23:35:48.523Z,89.45
2018-09-19T23:38:17.996Z,89.16
2018-09-19T23:40:48.009Z,89.80
2018-09-19T23:43:17.478Z,89.60
2018-09-19T23:45:46.899Z,89.27
2018-09-19T23:48:16.384Z,89.53
2018-09-19T23:50:45.797Z,89.03
2018-09-19T23:53:15.214Z,90.08
2018-09-19T23:55:44.603Z,89.50
2018-09-19T23:58:15.058Z,90.38
